createdAt,value
2022-11-10T00:01:18.033Z,98595.06
2022-11-10T00:03:44.230Z,98590.63
2022-11-10T00:06:10.352Z,98607.53
2022-11-10T00:08:36.440Z,98617.63
2022-11-10T00:11:02.748Z,98610.81
2022-11-10T00:13:28.829Z,98614.31
2022-11-10T00:15:54.936Z,98607.69
2022-11-10T00:18:21.069Z,98625.59
2022-11-10T00:20:47.173Z,98617.44
2022-11-10T00:23:13.280Z,98625.25
2022-11-10T00:25:39.389Z,98624.75
2022-11-10T00:28:05.501Z,98620.91
2022-11-10T00:30:31.598Z,98633.03
2022-11-10T00:32:57.717Z,98623.59
2022-11-10T00:35:23.817Z,98636.03
2022-11-10T00:37:49.908Z,98638.00
2022-11-10T00:40:16.024Z,98635.69
2022-11-10T00:42:42.111Z,98629.72
2022-11-10T00:45:08.189Z,98629.72
2022-11-10T00:47:34.308Z,98635.69
2022-11-10T00:50:00.392Z,98632.03
2022-11-10T00:52:26.475Z,98651.09
2022-11-10T00:54:52.591Z,98658.88
2022-11-10T00:57:18.681Z,98656.56
2022-11-10T00:59:44.782Z,98653.75
2022-11-10T01:02:10.912Z,98663.34
2022-11-10T01:04:37.002Z,98663.34
2022-11-10T01:07:03.138Z,98656.88
2022-11-10T01:09:29.271Z,98667.00
2022-11-10T01:11:55.357Z,98661.19
2022-11-10T01:14:21.458Z,98661.03
2022-11-10T01:16:47.572Z,98650.59
2022-11-10T01:19:13.657Z,98649.44
2022-11-10T01:21:39.741Z,98655.56
2022-11-10T01:24:05.895Z,98657.06
2022-11-10T01:26:32.084Z,98652.72
2022-11-10T01:28:58.179Z,98668.00
2022-11-10T01:31:25.841Z,98669.31
2022-11-10T01:33:51.937Z,98664.66
2022-11-10T01:36:18.044Z,98673.63
2022-11-10T01:38:44.168Z,98678.44
2022-11-10T01:41:10.283Z,98690.22
2022-11-10T01:43:36.365Z,98685.72
2022-11-10T01:46:02.962Z,98697.47
2022-11-10T01:48:29.058Z,98707.59
2022-11-10T01:50:55.148Z,98704.63
2022-11-10T01:53:21.604Z,98697.66
2022-11-10T01:55:47.832Z,98692.19
2022-11-10T01:58:13.929Z,98695.66
2022-11-10T02:00:40.087Z,98703.94
2022-11-10T02:03:06.228Z,98681.75
2022-11-10T02:05:32.324Z,98690.53
2022-11-10T02:07:58.450Z,98694.03
2022-11-10T02:10:24.533Z,98704.63
2022-11-10T02:12:50.646Z,98706.59
2022-11-10T02:15:16.756Z,98711.75
2022-11-10T02:17:42.859Z,98716.22
2022-11-10T02:20:08.969Z,98707.44
2022-11-10T02:22:35.087Z,98721.84
2022-11-10T02:25:01.186Z,98721.03
2022-11-10T02:27:27.283Z,98722.69
2022-11-10T02:29:53.407Z,98729.13
2022-11-10T02:32:19.510Z,98734.94
2022-11-10T02:34:45.599Z,98731.13
2022-11-10T02:37:11.701Z,98732.63
2022-11-10T02:39:37.812Z,98734.44
2022-11-10T02:42:03.896Z,98731.78
2022-11-10T02:44:30.010Z,98733.78
2022-11-10T02:46:56.107Z,98734.56
2022-11-10T02:49:22.195Z,98728.78
2022-11-10T02:51:48.304Z,98734.75
2022-11-10T02:54:14.393Z,98744.19
2022-11-10T02:56:40.475Z,98744.69
2022-11-10T02:59:06.665Z,98745.22
2022-11-10T03:01:32.931Z,98745.84
2022-11-10T03:03:59.068Z,98749.84
2022-11-10T03:06:25.183Z,98753.50
2022-11-10T03:08:51.286Z,98762.28
2022-11-10T03:11:17.397Z,98742.38
2022-11-10T03:14:00.398Z,98766.22
2022-11-10T03:16:27.855Z,98765.06
2022-11-10T03:18:53.969Z,98771.19
2022-11-10T03:21:20.103Z,98786.28
2022-11-10T03:23:46.188Z,98787.25
2022-11-10T03:26:12.581Z,98787.09
2022-11-10T03:28:38.677Z,98773.03
2022-11-10T03:31:04.783Z,98771.69
2022-11-10T03:33:30.901Z,98765.38
2022-11-10T03:35:56.999Z,98764.72
2022-11-10T03:38:23.089Z,98769.84
2022-11-10T03:41:18.924Z,98765.03
2022-11-10T03:43:35.296Z,98779.09
2022-11-10T03:46:01.417Z,98768.84
2022-11-10T03:48:27.516Z,98765.69
2022-11-10T03:50:53.603Z,98771.50
2022-11-10T03:53:20.509Z,98787.91
2022-11-10T03:55:46.750Z,98792.34
2022-11-10T03:58:12.897Z,98797.03
2022-11-10T04:00:39.004Z,98806.75
2022-11-10T04:03:05.091Z,98809.25
2022-11-10T04:05:31.180Z,98813.41
2022-11-10T04:07:57.312Z,98811.91
2022-11-10T04:10:23.400Z,98814.22
2022-11-10T04:12:49.488Z,98817.88
2022-11-10T04:15:15.606Z,98817.69
2022-11-10T04:17:41.712Z,98815.53
2022-11-10T04:20:07.824Z,98834.53
2022-11-10T04:22:33.941Z,98836.56
2022-11-10T04:25:00.047Z,98836.72
2022-11-10T04:27:26.157Z,98850.16
2022-11-10T04:29:52.270Z,98846.00
2022-11-10T04:32:18.372Z,98849.00
2022-11-10T04:34:44.474Z,98863.69
2022-11-10T04:37:10.590Z,98855.13
2022-11-10T04:39:36.687Z,98868.88
2022-11-10T04:42:03.121Z,98863.22
2022-11-10T04:44:29.317Z,98867.69
2022-11-10T04:46:55.419Z,98868.22
2022-11-10T04:49:21.533Z,98870.69
2022-11-10T04:51:47.696Z,98869.88
2022-11-10T04:54:13.849Z,98880.63
2022-11-10T04:56:39.945Z,98881.16
2022-11-10T04:59:06.112Z,98881.63
2022-11-10T05:01:32.209Z,98897.38
2022-11-10T05:03:58.319Z,98895.22
2022-11-10T05:06:24.431Z,98910.44
2022-11-10T05:08:50.524Z,98913.91
2022-11-10T05:11:16.623Z,98913.91
2022-11-10T05:13:42.756Z,98916.22
2022-11-10T05:16:08.847Z,98921.50
2022-11-10T05:18:34.941Z,98915.59
2022-11-10T05:21:01.067Z,98919.22
2022-11-10T05:23:27.151Z,98916.88
2022-11-10T05:25:53.250Z,98921.00
2022-11-10T05:28:19.637Z,98912.59
2022-11-10T05:30:45.739Z,98925.84
2022-11-10T05:33:11.830Z,98935.09
2022-11-10T05:35:37.986Z,98946.81
2022-11-10T05:38:04.102Z,98942.31
2022-11-10T05:40:30.204Z,98947.63
2022-11-10T05:42:56.329Z,98945.09
2022-11-10T05:45:22.434Z,98951.84
2022-11-10T05:47:48.515Z,98950.72
2022-11-10T05:50:14.641Z,98956.16
2022-11-10T05:52:40.733Z,98955.84
2022-11-10T05:55:06.828Z,98967.97
2022-11-10T05:57:32.943Z,98960.66
2022-11-10T05:59:59.047Z,98968.81
2022-11-10T06:02:25.145Z,98973.09
2022-11-10T06:04:51.267Z,98990.00
2022-11-10T06:07:17.436Z,98986.22
2022-11-10T06:09:43.578Z,98989.69
2022-11-10T06:12:09.685Z,98997.94
2022-11-10T06:14:35.778Z,98991.34
2022-11-10T06:17:01.860Z,98994.66
2022-11-10T06:19:27.968Z,99003.47
2022-11-10T06:22:01.350Z,99008.59
2022-11-10T06:24:29.848Z,99011.72
2022-11-10T06:26:55.945Z,99009.75
2022-11-10T06:29:26.644Z,99017.69
2022-11-10T06:31:53.153Z,99024.19
2022-11-10T06:34:19.237Z,99015.88
2022-11-10T06:36:45.331Z,99034.72
2022-11-10T06:39:11.490Z,99026.31
2022-11-10T06:41:37.583Z,99034.59
2022-11-10T06:44:03.681Z,99038.06
2022-11-10T06:46:29.801Z,99043.22
2022-11-10T06:48:55.913Z,99042.53
2022-11-10T06:51:22.009Z,99045.19
2022-11-10T06:53:48.124Z,99056.16
2022-11-10T06:56:14.238Z,99061.44
2022-11-10T06:58:40.329Z,99071.97
2022-11-10T07:01:06.585Z,99071.50
2022-11-10T07:03:32.705Z,99075.16
2022-11-10T07:05:58.807Z,99075.22
2022-11-10T07:08:24.928Z,99079.81
2022-11-10T07:10:51.031Z,99077.66
2022-11-10T07:13:17.129Z,99074.16
2022-11-10T07:15:43.239Z,99089.38
2022-11-10T07:18:09.333Z,99081.41
2022-11-10T07:20:35.427Z,99081.13
2022-11-10T07:23:01.548Z,99092.03
2022-11-10T07:25:27.654Z,99088.53
2022-11-10T07:27:53.762Z,99105.44
2022-11-10T07:30:19.896Z,99103.94
2022-11-10T07:32:45.997Z,99096.81
2022-11-10T07:35:12.079Z,99103.16
2022-11-10T07:37:38.200Z,99104.22
2022-11-10T07:40:04.303Z,99108.16
2022-11-10T07:42:30.411Z,99114.34
2022-11-10T07:44:56.511Z,99116.28
2022-11-10T07:47:22.601Z,99110.66
2022-11-10T07:49:48.678Z,99123.53
2022-11-10T07:52:14.817Z,99124.41
2022-11-10T07:54:40.914Z,99118.16
2022-11-10T07:57:07.000Z,99139.66
2022-11-10T07:59:33.115Z,99130.47
2022-11-10T08:01:59.253Z,99120.13
2022-11-10T08:04:25.390Z,99132.69
2022-11-10T08:06:51.606Z,99129.78
2022-11-10T08:09:17.760Z,99126.56
2022-11-10T08:11:43.898Z,99153.94
2022-11-10T08:14:10.023Z,99156.00
2022-11-10T08:16:36.114Z,99151.59
2022-11-10T08:19:02.297Z,99148.19
2022-11-10T08:21:28.407Z,99157.03
2022-11-10T08:23:54.503Z,99160.44
2022-11-10T08:26:21.111Z,99163.91
2022-11-10T08:28:47.235Z,99176.44
2022-11-10T08:31:13.325Z,99183.31
2022-11-10T08:33:39.422Z,99183.94
2022-11-10T08:36:05.567Z,99185.91
2022-11-10T08:38:31.654Z,99182.09
2022-11-10T08:40:57.751Z,99200.38
2022-11-10T08:43:24.788Z,99207.38
2022-11-10T08:45:51.214Z,99195.66
2022-11-10T08:48:17.315Z,99203.91
2022-11-10T08:50:43.425Z,99194.94
2022-11-10T08:53:09.525Z,99188.28
2022-11-10T08:55:35.667Z,99207.53
2022-11-10T08:58:01.787Z,99208.09
2022-11-10T09:00:27.925Z,99220.00
2022-11-10T09:02:54.038Z,99229.28
2022-11-10T09:05:20.141Z,99202.84
2022-11-10T09:07:46.251Z,99237.59
2022-11-10T09:10:12.348Z,99243.44
2022-11-10T09:12:38.467Z,99233.03
2022-11-10T09:15:04.572Z,99239.13
2022-11-10T09:17:30.664Z,99244.94
2022-11-10T09:19:56.853Z,99255.53
2022-11-10T09:22:22.952Z,99262.44
2022-11-10T09:24:49.071Z,99257.19
2022-11-10T09:27:15.174Z,99253.94
2022-11-10T09:29:41.259Z,99258.69
2022-11-10T09:32:07.353Z,99250.44
2022-11-10T09:34:33.481Z,99264.53
2022-11-10T09:36:59.593Z,99268.69
2022-11-10T09:39:25.683Z,99265.22
2022-11-10T09:41:51.781Z,99274.06
2022-11-10T09:44:17.875Z,99264.66
2022-11-10T09:46:43.963Z,99277.47
2022-11-10T09:49:10.198Z,99272.16
2022-11-10T09:51:36.316Z,99267.00
2022-11-10T09:54:02.421Z,99278.31
2022-11-10T09:56:28.547Z,99276.59
2022-11-10T09:58:54.636Z,99283.91
2022-11-10T10:01:20.766Z,99284.34
2022-11-10T10:03:46.894Z,99296.66
2022-11-10T10:06:13.004Z,99284.06
2022-11-10T10:08:39.100Z,99285.47
2022-11-10T10:11:05.707Z,99301.78
2022-11-10T10:13:31.804Z,99306.16
2022-11-10T10:15:57.895Z,99307.13
2022-11-10T10:18:24.177Z,99305.81
2022-11-10T10:20:50.532Z,99303.84
2022-11-10T10:23:16.629Z,99300.44
2022-11-10T10:25:42.749Z,99292.47
2022-11-10T10:28:08.846Z,99294.78
2022-11-10T10:30:34.942Z,99280.69
2022-11-10T10:33:01.060Z,99289.00
2022-11-10T10:35:27.165Z,99287.63
2022-11-10T10:37:53.258Z,99292.59
2022-11-10T10:40:19.367Z,99298.94
2022-11-10T10:42:45.457Z,99294.78
2022-11-10T10:45:11.599Z,99290.09
2022-11-10T10:47:37.749Z,99298.94
2022-11-10T10:50:03.842Z,99323.53
2022-11-10T10:52:29.933Z,99328.75
2022-11-10T10:54:56.045Z,99315.78
2022-11-10T10:57:22.140Z,99308.97
2022-11-10T10:59:48.237Z,99301.66
2022-11-10T11:02:14.341Z,99307.81
2022-11-10T11:04:40.430Z,99298.66
2022-11-10T11:07:06.554Z,99302.28
2022-11-10T11:09:32.713Z,99308.16
2022-11-10T11:11:58.921Z,99319.66
2022-11-10T11:14:25.017Z,99319.66
2022-11-10T11:16:51.612Z,99325.00
2022-11-10T11:19:17.791Z,99332.66
2022-11-10T11:21:43.888Z,99317.72
2022-11-10T11:24:10.005Z,99325.03
2022-11-10T11:26:36.088Z,99330.03
2022-11-10T11:29:02.172Z,99346.66
2022-11-10T11:31:28.282Z,99346.41
2022-11-10T11:33:54.379Z,99352.75
2022-11-10T11:36:20.459Z,99349.31
2022-11-10T11:38:46.575Z,99356.59
2022-11-10T11:41:12.669Z,99348.16
2022-11-10T11:43:38.767Z,99346.16
2022-11-10T11:46:04.925Z,99357.47
2022-11-10T11:48:31.021Z,99347.00
2022-11-10T11:50:57.111Z,99342.69
2022-11-10T11:53:23.215Z,99357.66
2022-11-10T11:55:49.304Z,99364.44
2022-11-10T11:58:15.410Z,99366.31
2022-11-10T12:00:41.532Z,99368.13
2022-11-10T12:03:07.619Z,99366.13
2022-11-10T12:05:33.729Z,99372.13
2022-11-10T12:07:59.848Z,99378.91
2022-11-10T12:10:25.950Z,99364.59
2022-11-10T12:12:52.057Z,99373.63
2022-11-10T12:15:18.255Z,99361.63
2022-11-10T12:17:44.666Z,99373.63
2022-11-10T12:20:10.789Z,99371.97
2022-11-10T12:22:36.896Z,99366.66
2022-11-10T12:25:03.088Z,99383.59
2022-11-10T12:27:29.181Z,99353.34
2022-11-10T12:29:55.305Z,99366.63
2022-11-10T12:32:21.400Z,99373.97
2022-11-10T12:34:47.504Z,99380.94
2022-11-10T12:37:13.654Z,99374.94
2022-11-10T12:39:39.812Z,99373.63
2022-11-10T12:42:06.096Z,99379.78
2022-11-10T12:44:32.224Z,99378.13
2022-11-10T12:46:58.311Z,99372.50
2022-11-10T12:49:24.416Z,99375.53
2022-11-10T12:51:50.537Z,99383.50
2022-11-10T12:54:17.124Z,99370.88
2022-11-10T12:56:43.259Z,99377.66
2022-11-10T12:59:09.500Z,99374.34
2022-11-10T13:01:35.667Z,99392.81
2022-11-10T13:04:01.891Z,99376.34
2022-11-10T13:06:28.092Z,99384.81
2022-11-10T13:08:54.219Z,99378.19
2022-11-10T13:11:20.332Z,99380.34
2022-11-10T13:13:46.511Z,99386.00
2022-11-10T13:16:12.624Z,99394.50
2022-11-10T13:18:38.724Z,99373.84
2022-11-10T13:21:04.886Z,99389.84
2022-11-10T13:23:31.001Z,99404.31
2022-11-10T13:25:57.101Z,99411.28
2022-11-10T13:28:23.774Z,99418.44
2022-11-10T13:30:49.989Z,99416.13
2022-11-10T13:33:16.096Z,99420.63
2022-11-10T13:35:42.210Z,99417.31
2022-11-10T13:38:08.309Z,99411.47
2022-11-10T13:40:34.405Z,99422.31
2022-11-10T13:43:00.518Z,99429.13
2022-11-10T13:45:26.622Z,99424.28
2022-11-10T13:47:52.726Z,99414.97
2022-11-10T13:50:18.849Z,99412.63
2022-11-10T13:52:44.952Z,99420.78
2022-11-10T13:55:16.008Z,99434.59
2022-11-10T13:57:42.570Z,99431.47
2022-11-10T14:00:08.734Z,99412.63
2022-11-10T14:02:34.887Z,99428.31
2022-11-10T14:05:01.058Z,99419.97
2022-11-10T14:07:27.159Z,99421.28
2022-11-10T14:09:53.263Z,99416.47
2022-11-10T14:12:19.370Z,99414.78
2022-11-10T14:14:45.485Z,99416.66
2022-11-10T14:17:11.582Z,99409.97
2022-11-10T14:19:37.693Z,99412.97
2022-11-10T14:22:03.839Z,99400.00
2022-11-10T14:24:29.947Z,99397.00
2022-11-10T14:26:56.203Z,99402.66
2022-11-10T14:29:22.307Z,99411.47
2022-11-10T14:31:48.407Z,99414.31
2022-11-10T14:34:14.525Z,99415.81
2022-11-10T14:36:40.608Z,99419.97
2022-11-10T14:39:06.699Z,99406.00
2022-11-10T14:41:32.813Z,99414.66
2022-11-10T14:43:58.917Z,99411.13
2022-11-10T14:46:25.009Z,99407.97
2022-11-10T14:48:51.141Z,99409.47
2022-11-10T14:51:17.247Z,99410.66
2022-11-10T14:53:43.341Z,99418.59
2022-11-10T14:56:10.017Z,99422.28
2022-11-10T14:58:36.117Z,99435.25
2022-11-10T15:01:02.212Z,99423.94
2022-11-10T15:03:28.316Z,99428.09
2022-11-10T15:05:54.418Z,99426.59
2022-11-10T15:08:20.880Z,99429.88
2022-11-10T15:10:47.499Z,99436.50
2022-11-10T15:13:13.592Z,99432.53
2022-11-10T15:15:39.686Z,99431.31
2022-11-10T15:18:05.801Z,99433.63
2022-11-10T15:20:31.943Z,99443.75
2022-11-10T15:22:58.057Z,99449.75
2022-11-10T15:25:24.168Z,99442.00
2022-11-10T15:27:51.251Z,99444.19
2022-11-10T15:30:17.423Z,99443.31
2022-11-10T15:32:43.680Z,99436.50
2022-11-10T15:35:09.779Z,99437.97
2022-11-10T15:37:35.879Z,99450.72
2022-11-10T15:40:02.005Z,99442.88
2022-11-10T15:42:28.091Z,99444.19
2022-11-10T15:44:54.193Z,99445.03
2022-11-10T15:47:20.303Z,99447.16
2022-11-10T15:49:46.407Z,99454.41
2022-11-10T15:52:12.505Z,99453.13
2022-11-10T15:54:38.727Z,99470.69
2022-11-10T15:57:04.826Z,99467.97
2022-11-10T15:59:30.924Z,99467.97
2022-11-10T16:01:57.146Z,99460.00
2022-11-10T16:04:23.342Z,99458.28
2022-11-10T16:06:49.456Z,99448.56
2022-11-10T16:09:15.581Z,99455.03
2022-11-10T16:11:41.684Z,99455.94
2022-11-10T16:14:07.772Z,99446.00
2022-11-10T16:16:33.877Z,99457.59
2022-11-10T16:18:59.962Z,99467.41
2022-11-10T16:21:26.053Z,99476.44
2022-11-10T16:23:52.186Z,99470.56
2022-11-10T16:26:18.290Z,99479.44
2022-11-10T16:28:44.405Z,99490.75
2022-11-10T16:31:11.012Z,99496.69
2022-11-10T16:33:37.101Z,99492.72
2022-11-10T16:36:03.207Z,99493.19
2022-11-10T16:38:29.320Z,99515.41
2022-11-10T16:40:55.420Z,99511.81
2022-11-10T16:43:21.519Z,99500.13
2022-11-10T16:45:47.719Z,99504.47
2022-11-10T16:48:13.810Z,99520.53
2022-11-10T16:50:39.911Z,99512.88
2022-11-10T16:53:06.024Z,99525.16
2022-11-10T16:55:32.118Z,99516.56
2022-11-10T16:57:58.225Z,99527.94
2022-11-10T17:00:25.346Z,99522.94
2022-11-10T17:02:51.718Z,99534.38
2022-11-10T17:05:17.806Z,99527.41
2022-11-10T17:07:43.924Z,99529.06
2022-11-10T17:10:10.018Z,99524.06
2022-11-10T17:12:36.252Z,99514.44
2022-11-10T17:15:02.457Z,99522.59
2022-11-10T17:17:28.560Z,99523.56
2022-11-10T17:19:54.657Z,99528.34
2022-11-10T17:22:20.776Z,99536.81
2022-11-10T17:24:46.874Z,99538.81
2022-11-10T17:27:12.957Z,99532.56
2022-11-10T17:29:39.053Z,99543.03
2022-11-10T17:32:05.147Z,99544.00
2022-11-10T17:34:31.252Z,99548.19
2022-11-10T17:36:57.848Z,99555.47
2022-11-10T17:39:23.927Z,99558.28
2022-11-10T17:41:50.020Z,99564.16
2022-11-10T17:44:16.147Z,99573.94
2022-11-10T17:46:42.246Z,99577.28
2022-11-10T17:49:08.372Z,99580.47
2022-11-10T17:51:34.498Z,99580.66
2022-11-10T17:54:00.596Z,99581.78
2022-11-10T17:56:26.702Z,99567.94
2022-11-10T17:58:52.877Z,99571.03
2022-11-10T18:01:19.067Z,99569.38
2022-11-10T18:03:45.218Z,99577.03
2022-11-10T18:06:11.876Z,99586.53
2022-11-10T18:08:37.981Z,99603.25
2022-11-10T18:11:04.074Z,99587.25
2022-11-10T18:13:30.186Z,99593.50
2022-11-10T18:15:56.288Z,99585.72
2022-11-10T18:18:22.379Z,99582.34
2022-11-10T18:20:48.497Z,99583.19
2022-11-10T18:23:14.580Z,99569.41
2022-11-10T18:25:40.680Z,99565.34
2022-11-10T18:28:06.783Z,99572.47
2022-11-10T18:30:35.231Z,99575.25
2022-11-10T18:33:01.768Z,99578.19
2022-11-10T18:35:27.910Z,99580.00
2022-11-10T18:37:54.172Z,99583.22
2022-11-10T18:40:20.447Z,99579.13
2022-11-10T18:42:46.742Z,99575.34
2022-11-10T18:45:12.881Z,99564.06
2022-11-10T18:47:38.972Z,99572.00
2022-11-10T18:50:05.081Z,99556.97
2022-11-10T18:52:31.184Z,99572.00
2022-11-10T18:54:57.290Z,99563.66
2022-11-10T18:57:23.401Z,99565.19
2022-11-10T18:59:49.509Z,99577.59
2022-11-10T19:02:15.610Z,99577.88
2022-11-10T19:04:41.737Z,99573.00
2022-11-10T19:07:07.867Z,99576.19
2022-11-10T19:09:34.009Z,99595.72
2022-11-10T19:12:00.126Z,99582.59
2022-11-10T19:14:26.224Z,99588.59
2022-11-10T19:16:52.309Z,99590.41
2022-11-10T19:19:18.422Z,99582.34
2022-11-10T19:21:44.538Z,99592.66
2022-11-10T19:24:10.651Z,99595.72
2022-11-10T19:26:36.819Z,99612.44
2022-11-10T19:29:02.908Z,99609.25
2022-11-10T19:31:29.014Z,99605.19
2022-11-10T19:33:55.141Z,99609.06
2022-11-10T19:36:21.229Z,99612.41
2022-11-10T19:38:47.321Z,99612.41
2022-11-10T19:41:13.723Z,99610.59
2022-11-10T19:43:42.477Z,99620.75
2022-11-10T19:46:12.406Z,99619.22
2022-11-10T19:48:38.518Z,99621.31
2022-11-10T19:51:04.611Z,99613.63
2022-11-10T19:53:30.709Z,99608.78
2022-11-10T19:55:56.813Z,99605.66
2022-11-10T19:58:22.920Z,99611.94
2022-11-10T20:00:49.012Z,99615.00
2022-11-10T20:03:15.111Z,99610.00
2022-11-10T20:05:41.205Z,99607.47
2022-11-10T20:08:09.812Z,99603.31
2022-11-10T20:10:37.219Z,99590.19
2022-11-10T20:13:03.307Z,99587.28
2022-11-10T20:15:29.399Z,99601.06
2022-11-10T20:17:55.501Z,99595.19
2022-11-10T20:20:21.606Z,99603.38
2022-11-10T20:22:47.713Z,99598.34
2022-11-10T20:25:13.826Z,99584.19
2022-11-10T20:27:39.921Z,99596.53
2022-11-10T20:30:06.021Z,99613.84
2022-11-10T20:32:32.138Z,99621.78
2022-11-10T20:34:58.246Z,99616.75
2022-11-10T20:37:24.346Z,99619.00
2022-11-10T20:39:50.472Z,99621.09
2022-11-10T20:42:16.565Z,99619.69
2022-11-10T20:44:42.653Z,99606.19
2022-11-10T20:47:09.092Z,99615.97
2022-11-10T20:49:35.214Z,99610.78
2022-11-10T20:52:01.403Z,99603.81
2022-11-10T20:54:27.518Z,99606.59
2022-11-10T20:56:53.611Z,99605.63
2022-11-10T20:59:19.711Z,99614.25
2022-11-10T21:01:45.862Z,99632.34
2022-11-10T21:04:11.998Z,99619.84
2022-11-10T21:06:38.149Z,99633.78
2022-11-10T21:09:04.282Z,99626.78
2022-11-10T21:11:32.467Z,99614.38
2022-11-10T21:13:58.890Z,99625.69
2022-11-10T21:16:25.932Z,99635.31
2022-11-10T21:18:52.030Z,99636.41
2022-11-10T21:21:18.124Z,99632.91
2022-11-10T21:23:44.230Z,99651.31
2022-11-10T21:26:10.329Z,99643.50
2022-11-10T21:28:36.434Z,99662.59
2022-11-10T21:31:02.552Z,99652.28
2022-11-10T21:33:28.649Z,99664.13
2022-11-10T21:35:54.864Z,99674.72
2022-11-10T21:38:20.981Z,99694.09
2022-11-10T21:40:47.083Z,99665.97
2022-11-10T21:43:13.177Z,99672.66
2022-11-10T21:45:39.330Z,99661.63
2022-11-10T21:48:05.448Z,99657.19
2022-11-10T21:50:31.541Z,99650.09
2022-11-10T21:52:57.646Z,99672.91
2022-11-10T21:55:23.737Z,99678.91
2022-11-10T21:57:49.920Z,99672.19
2022-11-10T22:00:16.029Z,99678.75
2022-11-10T22:02:42.119Z,99686.09
2022-11-10T22:05:08.210Z,99694.47
2022-11-10T22:07:34.321Z,99685.81
2022-11-10T22:10:00.417Z,99686.69
2022-11-10T22:12:26.507Z,99690.88
2022-11-10T22:14:52.639Z,99693.66
2022-11-10T22:17:18.732Z,99699.06
2022-11-10T22:19:44.825Z,99696.41
2022-11-10T22:22:10.923Z,99703.78
2022-11-10T22:24:37.016Z,99696.69
2022-11-10T22:27:03.149Z,99699.59
2022-11-10T22:29:31.665Z,99693.88
2022-11-10T22:31:58.158Z,99684.00
2022-11-10T22:34:24.252Z,99689.84
2022-11-10T22:36:50.370Z,99699.72
2022-11-10T22:39:16.468Z,99697.66
2022-11-10T22:41:42.555Z,99706.44
2022-11-10T22:44:08.679Z,99703.91
2022-11-10T22:46:34.781Z,99697.66
2022-11-10T22:49:00.869Z,99710.06
2022-11-10T22:51:27.051Z,99714.66
2022-11-10T22:53:53.140Z,99709.19
2022-11-10T22:56:19.232Z,99723.53
2022-11-10T22:58:45.339Z,99704.06
2022-11-10T23:01:11.544Z,99700.44
2022-11-10T23:03:37.692Z,99707.41
2022-11-10T23:06:03.814Z,99722.31
2022-11-10T23:08:29.931Z,99724.50
2022-11-10T23:10:56.021Z,99721.47
2022-11-10T23:13:22.424Z,99703.22
2022-11-10T23:15:48.706Z,99698.38
2022-11-10T23:18:14.794Z,99691.38
2022-11-10T23:20:41.553Z,99687.25
2022-11-10T23:23:07.650Z,99696.56
2022-11-10T23:25:33.763Z,99722.03
2022-11-10T23:27:59.873Z,99728.44
2022-11-10T23:30:25.961Z,99718.56
2022-11-10T23:32:52.049Z,99723.75
2022-11-10T23:35:18.181Z,99720.09
2022-11-10T23:37:44.289Z,99723.47
2022-11-10T23:40:10.428Z,99701.59
2022-11-10T23:42:36.541Z,99708.16
2022-11-10T23:45:02.659Z,99694.34
2022-11-10T23:47:28.751Z,99680.84
2022-11-10T23:49:54.907Z,99672.66
2022-11-10T23:52:20.995Z,99675.44
2022-11-10T23:54:47.104Z,99676.97
2022-11-10T23:57:13.505Z,99682.28
2022-11-10T23:59:39.596Z,99687.56
